Weather History for KDUB - March, 2014

Change the Weather History Date:

Saturday, March 15, 2014

  Actual Average (KJAC) Record (KJAC)
Temperature  
Mean Temperature 30 °F -  
Max Temperature 35 °F 38 °F 55 °F (2015)
Min Temperature 24 °F 12 °F -12 °F (1962)
Degree Days  
Heating Degree Days 36    
Moisture  
Dew Point 14 °F    
Average Humidity 52    
Maximum Humidity 86    
Minimum Humidity 38    
Precipitation  
Precipitation 0.00 in - - ()
Sea Level Pressure  
Sea Level Pressure 30.16 in    
Wind  
Wind Speed 18 mph (NW)    
Max Wind Speed 34 mph    
Max Gust Speed 37 mph    
Visibility 10 miles    
Events Snow    
Averages and records for this station are not official NWS values.
T = Trace of Precipitation, MM = Missing Value Source: NWS Daily Summary

Daily Weather History Graph

Daily Weather History Graph

Search for Another Location

Airport or City:

Trip Planner

Search our weather history database for the weather conditions in past years. The results will help you decide how hot, cold, wet, or windy it might be!

Date:

Astronomy

Mar. 15, 2014 Rise Set
Actual Time 7:30 AM MDT 7:25 PM MDT
Civil Twilight 7:02 AM MDT 7:53 PM MDT
Nautical Twilight 6:29 AM MDT 8:27 PM MDT
Astronomical Twilight 5:55 AM MDT 9:00 PM MDT
Moon 6:47 PM MDT (3/15) 6:45 AM MDT (3/15)
Length of Visible Light 12h 51m
Length of Day
11h 54m
Waxing Gibbous, 99% of the Moon is Illuminated
Mar 15
Waxing Gibbous
Mar 16
Full
Mar 23
Last Quarter
Mar 30
New
Apr 7
First Quarter

Hourly Weather History & Observations

Time (MDT) Temp. Windchill Dew Point Humidity Pressure Visibility Wind Dir Wind Speed Gust Speed Precip Events Conditions
12:10 AM 30.2 °F 21.9 °F 23.0 °F 75% 29.94 in 10.0 mi NW 9.2 mph 16.1 mph N/A   Mostly Cloudy
12:35 AM 30.2 °F 21.9 °F 21.2 °F 69% 29.93 in 10.0 mi NNW 9.2 mph - N/A   Scattered Clouds
12:55 AM 32.0 °F 22.1 °F 21.2 °F 64% 29.93 in 10.0 mi WNW 13.8 mph - N/A   Scattered Clouds
1:15 AM 32.0 °F 21.6 °F 21.2 °F 64% 29.92 in 10.0 mi NW 15.0 mph 23.0 mph N/A   Mostly Cloudy
1:35 AM 30.2 °F 21.3 °F 23.0 °F 75% 29.92 in 10.0 mi NNW 10.4 mph 16.1 mph N/A   Mostly Cloudy
1:50 AM 30.2 °F 18.5 °F 23.0 °F 75% 29.92 in 10.0 mi WNW 17.3 mph 26.5 mph N/A   Overcast
2:15 AM 28.4 °F 11.8 °F 24.8 °F 86% 29.94 in 1.2 mi NW 34.5 mph - N/A Snow Light Snow
2:35 AM 28.4 °F 15.1 °F 24.8 °F 86% 29.95 in 0.5 mi WNW 20.7 mph - N/A Snow Light Snow
2:55 AM 28.4 °F 14.4 °F 21.2 °F 74% 29.94 in 5.0 mi WNW 23.0 mph 27.6 mph N/A Snow Light Snow
3:15 AM 30.2 °F 17.1 °F 19.4 °F 64% 29.95 in 10.0 mi NW 21.9 mph 27.6 mph N/A   Overcast
3:35 AM 28.4 °F 16.6 °F 19.4 °F 69% 29.98 in 10.0 mi NNW 16.1 mph 29.9 mph N/A   Overcast
3:55 AM 26.6 °F 12.4 °F 19.4 °F 74% 29.97 in 5.0 mi WNW 21.9 mph 28.8 mph N/A Snow Light Snow
4:15 AM 26.6 °F 10.3 °F 15.8 °F 64% 29.97 in 10.0 mi WNW 29.9 mph 36.8 mph N/A   Mostly Cloudy
4:35 AM 26.6 °F - 14.0 °F 59% 29.97 in 10.0 mi North - - N/A   Scattered Clouds
4:55 AM 26.6 °F - 14.0 °F 59% 29.98 in 10.0 mi North - - N/A   Scattered Clouds
5:15 AM 26.6 °F 13.4 °F 12.2 °F 55% 30.01 in 10.0 mi WNW 18.4 mph 31.1 mph N/A   Scattered Clouds
5:35 AM 26.6 °F 13.8 °F 12.2 °F 55% 30.03 in 10.0 mi WNW 17.3 mph 26.5 mph N/A   Mostly Cloudy
5:55 AM 26.6 °F 12.7 °F 14.0 °F 59% 30.04 in 10.0 mi WNW 20.7 mph 25.3 mph N/A   Overcast
6:15 AM 26.6 °F 12.0 °F 14.0 °F 59% 30.04 in 10.0 mi WNW 23.0 mph 35.7 mph N/A Snow Light Snow
6:35 AM 26.6 °F 11.1 °F 14.0 °F 59% 30.04 in 10.0 mi WNW 26.5 mph 32.2 mph N/A Snow Light Snow
6:55 AM 26.6 °F 13.4 °F 14.0 °F 59% 30.06 in 10.0 mi WNW 18.4 mph 26.5 mph N/A   Overcast
7:15 AM 24.8 °F 11.1 °F 14.0 °F 64% 30.08 in 10.0 mi NW 18.4 mph 26.5 mph N/A   Overcast
7:35 AM 24.8 °F 11.9 °F 12.2 °F 59% 30.08 in 10.0 mi NW 16.1 mph 23.0 mph N/A   Overcast
7:55 AM 24.8 °F 11.1 °F 12.2 °F 59% 30.10 in 10.0 mi WNW 18.4 mph 26.5 mph N/A   Scattered Clouds
8:15 AM 24.8 °F 10.7 °F 12.2 °F 59% 30.10 in 10.0 mi WNW 19.6 mph 28.8 mph N/A   Clear
8:35 AM 26.6 °F 12.4 °F 14.0 °F 59% 30.11 in 10.0 mi WNW 21.9 mph 32.2 mph N/A   Scattered Clouds
8:55 AM 26.6 °F 12.7 °F 12.2 °F 55% 30.13 in 10.0 mi WNW 20.7 mph 29.9 mph N/A   Mostly Cloudy
9:15 AM 28.4 °F 18.0 °F 14.0 °F 55% 30.16 in 10.0 mi WNW 12.7 mph 19.6 mph N/A   Overcast
9:35 AM 28.4 °F 18.0 °F 12.2 °F 51% 30.16 in 10.0 mi WNW 12.7 mph - N/A   Scattered Clouds
9:55 AM 28.4 °F 15.1 °F 12.2 °F 51% 30.17 in 10.0 mi WNW 20.7 mph 27.6 mph N/A   Clear
10:15 AM 30.2 °F 16.5 °F 12.2 °F 47% 30.18 in 10.0 mi NW 24.2 mph 33.4 mph N/A   Clear
10:35 AM 30.2 °F 17.4 °F 12.2 °F 47% 30.18 in 10.0 mi NW 20.7 mph 31.1 mph N/A   Clear
10:55 AM 30.2 °F 17.1 °F 12.2 °F 47% 30.18 in 10.0 mi NW 21.9 mph 28.8 mph N/A   Clear
11:15 AM 30.2 °F 16.8 °F 12.2 °F 47% 30.19 in 10.0 mi NW 23.0 mph 28.8 mph N/A   Clear
11:35 AM 32.0 °F 19.5 °F 14.0 °F 48% 30.19 in 10.0 mi NW 21.9 mph 26.5 mph N/A   Clear
11:55 AM 32.0 °F 20.5 °F 12.2 °F 44% 30.21 in 10.0 mi NW 18.4 mph 26.5 mph N/A   Clear
12:15 PM 32.0 °F 20.5 °F 12.2 °F 44% 30.21 in 10.0 mi NW 18.4 mph 26.5 mph N/A   Clear
12:35 PM 32.0 °F 20.1 °F 14.0 °F 48% 30.21 in 10.0 mi NW 19.6 mph 25.3 mph N/A   Clear
12:50 PM 33.8 °F 23.2 °F 14.0 °F 44% 30.23 in 10.0 mi NNW 17.3 mph 25.3 mph N/A   Clear
1:15 PM 33.8 °F 22.5 °F 12.2 °F 41% 30.24 in 10.0 mi NNW 19.6 mph 27.6 mph N/A   Clear
1:35 PM 33.8 °F 23.2 °F 14.0 °F 44% 30.24 in 10.0 mi NNW 17.3 mph 26.5 mph N/A   Clear
1:55 PM 33.8 °F 22.2 °F 14.0 °F 44% 30.24 in 10.0 mi NW 20.7 mph 28.8 mph N/A   Clear
2:15 PM 33.8 °F 22.2 °F 14.0 °F 44% 30.25 in 10.0 mi NNW 20.7 mph 26.5 mph N/A   Clear
2:30 PM 35.6 °F 26.6 °F 14.0 °F 41% 30.25 in 10.0 mi NNW 13.8 mph 21.9 mph N/A   Clear
2:55 PM 35.6 °F 26.6 °F 14.0 °F 41% 30.26 in 10.0 mi NNW 13.8 mph 20.7 mph N/A   Clear
3:15 PM 35.6 °F 25.5 °F 14.0 °F 41% 30.26 in 10.0 mi North 17.3 mph 24.2 mph N/A   Clear
3:35 PM 35.6 °F 25.9 °F 12.2 °F 38% 30.26 in 10.0 mi NW 16.1 mph 20.7 mph N/A   Clear
3:55 PM 35.6 °F 25.9 °F 12.2 °F 38% 30.27 in 10.0 mi NW 16.1 mph 26.5 mph N/A   Clear
4:15 PM 35.6 °F 25.2 °F 12.2 °F 38% 30.27 in 10.0 mi NW 18.4 mph 25.3 mph N/A   Clear
4:30 PM 35.6 °F 25.2 °F 12.2 °F 38% 30.27 in 10.0 mi NW 18.4 mph 26.5 mph N/A   Clear
4:55 PM 35.6 °F 24.8 °F 12.2 °F 38% 30.27 in 10.0 mi NW 19.6 mph 25.3 mph N/A   Clear
5:15 PM 35.6 °F 25.2 °F 14.0 °F 41% 30.28 in 10.0 mi NW 18.4 mph 26.5 mph N/A   Clear
5:35 PM 35.6 °F 25.2 °F 14.0 °F 41% 30.29 in 10.0 mi NW 18.4 mph 26.5 mph N/A   Clear
5:55 PM 33.8 °F 23.5 °F 14.0 °F 44% 30.29 in 10.0 mi NW 16.1 mph 24.2 mph N/A   Clear
6:15 PM 33.8 °F 23.5 °F 14.0 °F 44% 30.29 in 10.0 mi WNW 16.1 mph 25.3 mph N/A   Clear
6:35 PM 33.8 °F 22.5 °F 14.0 °F 44% 30.29 in 10.0 mi WNW 19.6 mph 24.2 mph N/A   Clear
6:55 PM 32.0 °F 20.5 °F 14.0 °F 48% 30.30 in 10.0 mi WNW 18.4 mph 27.6 mph N/A   Clear
7:15 PM 32.0 °F 19.8 °F 12.2 °F 44% 30.30 in 10.0 mi WNW 20.7 mph 27.6 mph N/A   Clear
7:35 PM 32.0 °F 19.2 °F 12.2 °F 44% 30.30 in 10.0 mi WNW 23.0 mph 27.6 mph N/A   Clear
7:55 PM 32.0 °F 18.6 °F 10.4 °F 41% 30.30 in 10.0 mi WNW 25.3 mph 28.8 mph N/A   Clear
8:15 PM 32.0 °F 18.9 °F 10.4 °F 41% 30.29 in 10.0 mi WNW 24.2 mph 34.5 mph N/A   Clear
8:35 PM 32.0 °F 18.1 °F 10.4 °F 41% 30.29 in 10.0 mi WNW 27.6 mph 34.5 mph N/A   Clear
8:55 PM 30.2 °F 16.5 °F 10.4 °F 44% 30.30 in 10.0 mi WNW 24.2 mph 31.1 mph N/A   Clear
9:15 PM 30.2 °F 17.1 °F 10.4 °F 44% 30.31 in 10.0 mi WNW 21.9 mph - N/A   Clear
9:35 PM 32.0 °F 18.6 °F 10.4 °F 41% 30.31 in 10.0 mi WNW 25.3 mph - N/A   Clear
9:55 PM 30.2 °F 16.5 °F 10.4 °F 44% 30.30 in 10.0 mi WNW 24.2 mph 31.1 mph N/A   Clear
10:15 PM 30.2 °F 16.5 °F 10.4 °F 44% 30.31 in 10.0 mi WNW 24.2 mph - N/A   Clear
10:35 PM 32.0 °F 19.2 °F 8.6 °F 38% 30.32 in 10.0 mi WNW 23.0 mph 32.2 mph N/A   Clear
10:55 PM 32.0 °F 19.8 °F 8.6 °F 38% 30.32 in 10.0 mi WNW 20.7 mph 26.5 mph N/A   Clear
11:15 PM 32.0 °F 19.5 °F 8.6 °F 38% 30.31 in 10.0 mi WNW 21.9 mph - N/A   Clear
11:35 PM 32.0 °F 18.9 °F 8.6 °F 38% 30.31 in 10.0 mi WNW 24.2 mph 33.4 mph N/A   Clear